METAR Data
IDs: Format: Raw Decoded Include TAF

Data at: 0239 UTC 25 Feb 2021

KBVS 250235Z AUTO 00000KT 10SM SCT100 SCT120 04/01 A3050 RMK A01